createdAt,value
2018-02-21T00:01:49.153Z,13.82
2018-02-21T00:04:17.629Z,16.58
2018-02-21T00:06:46.073Z,14.25
2018-02-21T00:09:14.575Z,14.87
2018-02-21T00:11:43.202Z,14.38
2018-02-21T00:14:12.247Z,15.43
2018-02-21T00:16:40.798Z,14.90
2018-02-21T00:19:09.380Z,13.80
2018-02-21T00:21:37.986Z,14.90
2018-02-21T00:24:06.610Z,12.88
2018-02-21T00:26:35.170Z,13.77
2018-02-21T00:29:03.735Z,15.15
2018-02-21T00:31:32.803Z,13.00
2018-02-21T00:34:01.304Z,12.13
2018-02-21T00:36:29.788Z,10.75
2018-02-21T00:38:58.404Z,12.48
2018-02-21T00:41:26.852Z,12.23
2018-02-21T00:43:55.327Z,12.98
2018-02-21T00:46:24.505Z,13.25
2018-02-21T00:48:53.016Z,13.85
2018-02-21T00:51:21.449Z,12.63
2018-02-21T00:53:50.046Z,12.37
2018-02-21T00:56:18.508Z,13.27
2018-02-21T00:58:46.945Z,11.73
2018-02-21T01:01:16.113Z,12.07
2018-02-21T01:03:44.641Z,11.68
2018-02-21T01:06:13.602Z,12.30
2018-02-21T01:08:42.873Z,11.90
2018-02-21T01:11:11.313Z,10.70
2018-02-21T01:13:39.779Z,11.30
2018-02-21T01:16:08.433Z,12.02
2018-02-21T01:18:36.965Z,11.25
2018-02-21T01:21:05.893Z,11.07
2018-02-21T01:23:34.763Z,11.15
2018-02-21T01:26:03.346Z,11.10
2018-02-21T01:28:31.799Z,11.40
2018-02-21T01:31:00.445Z,11.77
2018-02-21T01:33:29.008Z,11.10
2018-02-21T01:35:58.499Z,11.25
2018-02-21T01:38:27.135Z,12.73
2018-02-21T01:40:55.687Z,12.45
2018-02-21T01:43:24.148Z,12.15
2018-02-21T01:45:52.656Z,11.70
2018-02-21T01:48:21.338Z,12.48
2018-02-21T01:50:52.820Z,12.75
2018-02-21T01:53:21.906Z,13.05
2018-02-21T01:55:50.421Z,12.50
2018-02-21T01:58:18.997Z,12.90
2018-02-21T02:00:47.626Z,12.37
2018-02-21T02:03:16.124Z,13.15
2018-02-21T02:05:44.612Z,13.18
2018-02-21T02:08:13.143Z,12.57
2018-02-21T02:10:41.678Z,12.55
2018-02-21T02:13:10.138Z,12.80
2018-02-21T02:15:39.136Z,12.18
2018-02-21T02:18:07.719Z,12.13
2018-02-21T02:20:36.215Z,12.60
2018-02-21T02:23:04.888Z,12.65
2018-02-21T02:25:33.464Z,11.30
2018-02-21T02:28:01.952Z,12.68
2018-02-21T02:30:30.805Z,13.00
2018-02-21T02:32:59.310Z,11.57
2018-02-21T02:35:27.858Z,12.77
2018-02-21T02:37:56.370Z,11.70
2018-02-21T02:40:24.823Z,13.27
2018-02-21T02:42:53.371Z,11.98
2018-02-21T02:45:21.876Z,10.57
2018-02-21T02:47:50.350Z,11.88
2018-02-21T02:50:18.791Z,10.52
2018-02-21T02:52:48.425Z,11.20
2018-02-21T02:55:16.919Z,11.30
2018-02-21T02:57:45.696Z,11.50
2018-02-21T03:00:15.011Z,12.32
2018-02-21T03:02:43.496Z,10.68
2018-02-21T03:05:11.971Z,11.75
2018-02-21T03:07:40.699Z,11.12
2018-02-21T03:10:09.168Z,9.38
2018-02-21T03:12:37.881Z,11.00
2018-02-21T03:15:07.516Z,12.00
2018-02-21T03:17:35.992Z,12.80
2018-02-21T03:20:04.665Z,12.80
2018-02-21T03:22:34.154Z,12.70
2018-02-21T03:25:02.636Z,12.13
2018-02-21T03:27:31.161Z,12.40
2018-02-21T03:30:02.106Z,12.63
2018-02-21T03:32:30.557Z,12.60
2018-02-21T03:34:59.050Z,11.50
2018-02-21T03:37:27.575Z,11.63
2018-02-21T03:39:56.114Z,12.40
2018-02-21T03:42:24.621Z,11.45
2018-02-21T03:44:53.153Z,10.73
2018-02-21T03:47:21.601Z,11.52
2018-02-21T03:49:50.123Z,12.20
2018-02-21T03:52:20.200Z,10.25
2018-02-21T03:54:48.781Z,10.50
2018-02-21T03:57:17.277Z,10.02
2018-02-21T03:59:45.747Z,12.45
2018-02-21T04:02:14.199Z,11.63
2018-02-21T04:04:42.625Z,11.20
2018-02-21T04:07:11.625Z,11.88
2018-02-21T04:09:40.174Z,10.50
2018-02-21T04:12:08.702Z,10.88
2018-02-21T04:14:39.443Z,12.90
2018-02-21T04:17:07.970Z,11.68
2018-02-21T04:19:36.556Z,12.05
2018-02-21T04:22:06.083Z,12.25
2018-02-21T04:24:34.754Z,10.80
2018-02-21T04:27:03.224Z,11.40
2018-02-21T04:29:32.261Z,13.32
2018-02-21T04:32:00.720Z,11.68
2018-02-21T04:34:29.151Z,11.75
2018-02-21T04:36:58.531Z,11.48
2018-02-21T04:39:27.056Z,12.07
2018-02-21T04:41:55.968Z,12.40
2018-02-21T04:44:24.900Z,12.80
2018-02-21T04:46:53.380Z,11.98
2018-02-21T04:49:21.863Z,12.37
2018-02-21T04:51:51.178Z,11.23
2018-02-21T04:57:35.689Z,11.55
2018-02-21T05:00:20.029Z,11.55
2018-02-21T05:02:49.469Z,11.45
2018-02-21T05:05:17.937Z,11.43
2018-02-21T05:07:46.433Z,12.20
2018-02-21T05:10:15.488Z,11.65
2018-02-21T05:12:44.045Z,12.60
2018-02-21T05:15:12.504Z,13.10
2018-02-21T05:17:41.292Z,13.57
2018-02-21T05:20:09.808Z,11.75
2018-02-21T05:22:38.313Z,12.80
2018-02-21T05:25:07.024Z,13.70
2018-02-21T05:27:35.556Z,14.65
2018-02-21T05:30:04.216Z,13.50
2018-02-21T05:32:32.746Z,11.75
2018-02-21T05:35:01.187Z,14.45
2018-02-21T05:37:29.685Z,13.05
2018-02-21T05:39:58.259Z,13.60
2018-02-21T05:42:26.708Z,12.48
2018-02-21T05:44:55.173Z,12.65
2018-02-21T05:47:23.881Z,12.65
2018-02-21T05:49:52.321Z,11.63
2018-02-21T05:52:20.842Z,13.32
2018-02-21T05:54:49.390Z,14.57
2018-02-21T05:57:17.850Z,13.02
2018-02-21T05:59:46.288Z,14.15
2018-02-21T06:02:15.148Z,14.68
2018-02-21T06:04:43.655Z,13.93
2018-02-21T06:07:12.296Z,13.55
2018-02-21T06:09:40.908Z,14.18
2018-02-21T06:12:09.617Z,14.63
2018-02-21T06:14:38.075Z,13.60
2018-02-21T06:17:08.047Z,17.30
2018-02-21T06:19:37.299Z,14.63
2018-02-21T06:22:05.910Z,14.98
2018-02-21T06:24:35.182Z,15.13
2018-02-21T06:27:05.359Z,14.35
2018-02-21T06:29:34.027Z,14.38
2018-02-21T06:32:04.352Z,14.85
2018-02-21T06:34:34.042Z,15.90
2018-02-21T06:37:02.834Z,15.13
2018-02-21T06:39:33.994Z,15.48
2018-02-21T06:42:06.778Z,14.60
2018-02-21T06:44:36.438Z,15.30
2018-02-21T06:47:05.278Z,15.07
2018-02-21T06:49:33.927Z,13.40
2018-02-21T06:52:03.354Z,16.48
2018-02-21T06:54:32.008Z,15.02
2018-02-21T06:57:01.815Z,15.43
2018-02-21T06:59:30.642Z,15.13
2018-02-21T07:01:59.677Z,13.93
2018-02-21T07:04:28.625Z,14.07
2018-02-21T07:06:57.310Z,14.35
2018-02-21T07:09:25.968Z,15.52
2018-02-21T07:11:59.860Z,16.30
2018-02-21T07:14:29.204Z,16.42
2018-02-21T07:16:57.666Z,15.85
2018-02-21T07:19:26.261Z,16.25
2018-02-21T07:21:54.934Z,16.12
2018-02-21T07:24:23.441Z,15.23
2018-02-21T07:26:51.898Z,15.85
2018-02-21T07:29:20.417Z,16.35
2018-02-21T07:31:48.933Z,16.00
2018-02-21T07:34:17.378Z,16.17
2018-02-21T07:36:45.958Z,16.73
2018-02-21T07:39:14.410Z,15.20
2018-02-21T07:41:42.875Z,16.25
2018-02-21T07:44:11.483Z,16.87
2018-02-21T07:46:40.095Z,15.43
2018-02-21T07:49:08.675Z,15.95
2018-02-21T07:51:37.796Z,17.25
2018-02-21T07:54:06.307Z,17.30
2018-02-21T07:56:34.861Z,16.83
2018-02-21T07:59:04.284Z,16.00
2018-02-21T08:01:32.945Z,14.77
2018-02-21T08:04:01.526Z,16.30
2018-02-21T08:06:30.816Z,15.95
2018-02-21T08:08:59.289Z,15.90
2018-02-21T08:11:27.767Z,15.65
2018-02-21T08:13:56.294Z,16.75
2018-02-21T08:16:24.850Z,15.30
2018-02-21T08:18:53.368Z,15.65
2018-02-21T08:21:22.827Z,15.75
2018-02-21T08:23:51.311Z,16.65
2018-02-21T08:26:19.827Z,16.90
2018-02-21T08:28:48.356Z,15.93
2018-02-21T08:31:16.890Z,15.55
2018-02-21T08:33:45.341Z,14.20
2018-02-21T08:36:14.474Z,12.68
2018-02-21T08:38:43.036Z,11.80
2018-02-21T08:41:11.529Z,10.77
2018-02-21T08:43:40.305Z,10.15
2018-02-21T08:46:08.769Z,11.07
2018-02-21T08:48:37.246Z,12.52
2018-02-21T08:51:06.666Z,11.12
2018-02-21T08:53:35.452Z,11.25
2018-02-21T08:56:03.985Z,11.20
2018-02-21T08:58:35.184Z,10.73
2018-02-21T09:01:03.706Z,11.52
2018-02-21T09:03:32.157Z,11.45
2018-02-21T09:06:01.539Z,11.43
2018-02-21T09:08:30.021Z,12.40
2018-02-21T09:10:58.538Z,11.60
2018-02-21T09:13:27.100Z,10.55
2018-02-21T09:15:55.570Z,11.20
2018-02-21T09:18:24.078Z,11.93
2018-02-21T09:20:53.276Z,11.80
2018-02-21T09:23:21.886Z,14.05
2018-02-21T09:25:50.342Z,11.70
2018-02-21T09:28:18.861Z,11.18
2018-02-21T09:30:47.323Z,11.80
2018-02-21T09:33:15.785Z,12.85
2018-02-21T09:35:44.362Z,12.00
2018-02-21T09:38:12.914Z,14.02
2018-02-21T09:40:41.472Z,13.00
2018-02-21T09:43:10.178Z,12.30
2018-02-21T09:45:39.607Z,12.18
2018-02-21T09:48:08.334Z,11.90
2018-02-21T09:50:36.846Z,11.80
2018-02-21T09:53:05.470Z,11.45
2018-02-21T09:55:34.156Z,8.05
2018-02-21T09:58:03.151Z,8.65
2018-02-21T10:00:31.751Z,7.60
2018-02-21T10:03:00.245Z,8.05
2018-02-21T10:05:28.773Z,8.10
2018-02-21T10:07:57.216Z,5.40
2018-02-21T10:10:25.900Z,6.95
2018-02-21T10:12:54.400Z,6.37
2018-02-21T10:15:23.547Z,7.05
2018-02-21T10:17:52.723Z,7.90
2018-02-21T10:20:21.515Z,8.02
2018-02-21T10:22:49.964Z,11.07
2018-02-21T10:25:18.407Z,12.10
2018-02-21T10:27:46.953Z,10.60
2018-02-21T10:30:15.408Z,9.30
2018-02-21T10:32:43.897Z,9.57
2018-02-21T10:35:12.986Z,10.70
2018-02-21T10:37:41.578Z,10.60
2018-02-21T10:40:10.243Z,12.02
2018-02-21T10:42:39.156Z,9.63
2018-02-21T10:45:09.640Z,9.43
2018-02-21T10:47:38.321Z,9.82
2018-02-21T10:50:06.998Z,11.77
2018-02-21T10:52:35.480Z,11.10
2018-02-21T10:55:04.071Z,9.40
2018-02-21T10:57:32.919Z,12.00
2018-02-21T11:00:01.495Z,11.57
2018-02-21T11:02:29.946Z,12.48
2018-02-21T11:04:58.786Z,13.20
2018-02-21T11:07:27.241Z,11.77
2018-02-21T11:09:55.728Z,13.00
2018-02-21T11:12:24.279Z,11.93
2018-02-21T11:14:52.757Z,13.35
2018-02-21T11:17:22.336Z,12.18
2018-02-21T11:19:51.607Z,10.18
2018-02-21T11:22:20.093Z,12.33
2018-02-21T11:24:49.167Z,10.98
2018-02-21T11:27:17.997Z,10.40
2018-02-21T11:29:46.476Z,9.47
2018-02-21T11:32:14.934Z,11.70
2018-02-21T11:34:43.662Z,13.45
2018-02-21T11:37:12.266Z,13.20
2018-02-21T11:39:40.894Z,12.18
2018-02-21T11:42:10.106Z,14.75
2018-02-21T11:44:38.824Z,14.55
2018-02-21T11:47:07.450Z,13.70
2018-02-21T11:49:36.297Z,15.20
2018-02-21T11:52:04.895Z,14.87
2018-02-21T11:54:33.410Z,14.75
2018-02-21T11:57:02.470Z,14.45
2018-02-21T11:59:30.975Z,16.77
2018-02-21T12:01:59.448Z,14.93
2018-02-21T12:04:28.003Z,17.17
2018-02-21T12:06:56.492Z,16.20
2018-02-21T12:09:24.944Z,17.75
2018-02-21T12:11:53.866Z,16.45
2018-02-21T12:14:22.322Z,18.87
2018-02-21T12:16:50.821Z,17.12
2018-02-21T12:19:19.325Z,16.02
2018-02-21T12:21:47.788Z,16.10
2018-02-21T12:24:16.236Z,15.70
2018-02-21T12:26:44.947Z,15.07
2018-02-21T12:29:13.502Z,16.62
2018-02-21T12:31:42.554Z,15.65
2018-02-21T12:34:11.282Z,15.57
2018-02-21T12:36:40.075Z,13.95
2018-02-21T12:39:14.227Z,15.40
2018-02-21T12:41:43.595Z,14.95
2018-02-21T12:44:12.111Z,16.12
2018-02-21T12:46:40.766Z,17.12
2018-02-21T12:49:09.512Z,16.55
2018-02-21T12:51:38.117Z,16.92
2018-02-21T12:54:06.820Z,17.92
2018-02-21T12:56:35.470Z,16.48
2018-02-21T12:59:04.399Z,16.17
2018-02-21T13:01:33.304Z,16.35
2018-02-21T13:04:01.788Z,18.80
2018-02-21T13:06:30.394Z,18.77
2018-02-21T13:08:59.795Z,17.87
2018-02-21T13:11:28.374Z,18.62
2018-02-21T13:13:56.979Z,18.50
2018-02-21T13:16:26.047Z,17.20
2018-02-21T13:18:54.608Z,16.60
2018-02-21T13:21:23.081Z,17.23
2018-02-21T13:23:52.099Z,16.60
2018-02-21T13:26:20.588Z,17.10
2018-02-21T13:28:49.083Z,17.02
2018-02-21T13:31:17.595Z,17.92
2018-02-21T13:33:46.121Z,16.27
2018-02-21T13:36:14.576Z,16.10
2018-02-21T13:38:43.521Z,15.48
2018-02-21T13:41:12.391Z,15.25
2018-02-21T13:43:40.973Z,14.87
2018-02-21T13:46:09.799Z,15.55
2018-02-21T13:48:38.314Z,15.57
2018-02-21T13:51:06.929Z,15.73
2018-02-21T13:53:35.789Z,15.18
2018-02-21T13:56:04.341Z,15.95
2018-02-21T13:58:32.854Z,13.35
2018-02-21T14:01:01.458Z,14.32
2018-02-21T14:03:30.748Z,13.93
2018-02-21T14:05:59.274Z,13.65
2018-02-21T14:08:27.875Z,14.10
2018-02-21T14:10:56.389Z,12.37
2018-02-21T14:13:24.891Z,13.40
2018-02-21T14:15:54.145Z,14.73
2018-02-21T14:18:22.688Z,14.48
2018-02-21T14:20:51.169Z,12.95
2018-02-21T14:23:19.753Z,12.70
2018-02-21T14:25:48.247Z,11.90
2018-02-21T14:28:16.712Z,13.95
2018-02-21T14:30:45.280Z,15.70
2018-02-21T14:33:13.934Z,13.32
2018-02-21T14:35:42.520Z,12.25
2018-02-21T14:38:11.142Z,11.35
2018-02-21T14:40:39.616Z,11.57
2018-02-21T14:43:08.230Z,13.15
2018-02-21T14:45:36.817Z,12.75
2018-02-21T14:48:05.458Z,15.07
2018-02-21T14:50:34.008Z,15.98
2018-02-21T14:53:02.795Z,16.70
2018-02-21T14:55:31.283Z,16.27
2018-02-21T14:57:59.880Z,16.90
2018-02-21T15:00:28.791Z,16.83
2018-02-21T15:02:57.391Z,15.32
2018-02-21T15:05:25.857Z,16.27
2018-02-21T15:07:55.321Z,16.65
2018-02-21T15:10:23.934Z,17.73
2018-02-21T15:12:52.457Z,17.40
2018-02-21T15:15:21.869Z,16.48
2018-02-21T15:17:50.598Z,16.40
2018-02-21T15:20:19.133Z,18.10
2018-02-21T15:22:48.536Z,17.80
2018-02-21T15:25:17.007Z,16.50
2018-02-21T15:27:45.479Z,16.48
2018-02-21T15:30:15.201Z,16.15
2018-02-21T15:32:43.833Z,15.63
2018-02-21T15:35:12.723Z,15.35
2018-02-21T15:37:42.162Z,15.10
2018-02-21T15:40:10.757Z,16.50
2018-02-21T15:42:39.607Z,17.08
2018-02-21T15:45:08.172Z,16.08
2018-02-21T15:47:36.718Z,15.75
2018-02-21T15:50:05.414Z,14.25
2018-02-21T15:52:35.084Z,18.20
2018-02-21T15:55:03.809Z,16.33
2018-02-21T15:57:32.266Z,17.73
2018-02-21T16:00:01.631Z,16.85
2018-02-21T16:02:30.122Z,13.77
2018-02-21T16:04:58.635Z,15.75
2018-02-21T16:07:27.158Z,14.50
2018-02-21T16:09:55.646Z,13.60
2018-02-21T16:12:24.889Z,15.43
2018-02-21T16:14:53.824Z,14.45
2018-02-21T16:17:22.249Z,13.70
2018-02-21T16:19:50.712Z,15.75
2018-02-21T16:22:20.022Z,14.75
2018-02-21T16:24:48.526Z,14.98
2018-02-21T16:27:17.144Z,15.38
2018-02-21T16:29:46.412Z,15.30
2018-02-21T16:32:15.141Z,17.98
2018-02-21T16:34:43.795Z,16.50
2018-02-21T16:37:12.593Z,16.23
2018-02-21T16:39:41.267Z,16.90
2018-02-21T16:42:10.131Z,16.55
2018-02-21T16:44:39.159Z,17.37
2018-02-21T16:47:08.070Z,17.48
2018-02-21T16:49:37.858Z,15.75
2018-02-21T16:52:07.746Z,20.08
2018-02-21T16:54:36.845Z,17.50
2018-02-21T16:57:05.729Z,18.80
2018-02-21T16:59:35.289Z,22.50
2018-02-21T17:02:04.030Z,20.50
2018-02-21T17:04:32.586Z,20.70
2018-02-21T17:07:01.165Z,20.70
2018-02-21T17:09:29.779Z,19.80
2018-02-21T17:11:58.333Z,17.95
2018-02-21T17:14:27.460Z,19.48
2018-02-21T17:16:56.013Z,19.25
2018-02-21T17:19:25.270Z,24.65
2018-02-21T17:21:54.386Z,26.62
2018-02-21T17:24:22.848Z,25.62
2018-02-21T17:26:51.431Z,21.90
2018-02-21T17:29:20.628Z,23.65
2018-02-21T17:31:49.164Z,20.75
2018-02-21T17:34:18.634Z,20.98
2018-02-21T17:36:54.761Z,20.50
2018-02-21T17:39:23.293Z,18.42
2018-02-21T17:41:51.790Z,19.35
2018-02-21T17:44:20.968Z,19.25
2018-02-21T17:46:49.481Z,19.80
2018-02-21T17:49:17.934Z,19.55
2018-02-21T17:51:46.574Z,20.92
2018-02-21T17:54:15.307Z,19.10
2018-02-21T17:56:43.940Z,18.30
2018-02-21T17:59:13.287Z,19.20
2018-02-21T18:01:42.862Z,20.50
2018-02-21T18:04:11.958Z,21.27
2018-02-21T18:06:40.957Z,24.65
2018-02-21T18:09:09.648Z,21.30
2018-02-21T18:11:38.894Z,20.02
2018-02-21T18:14:08.231Z,22.05
2018-02-21T18:16:37.097Z,19.95
2018-02-21T18:19:06.319Z,19.75
2018-02-21T18:21:41.001Z,20.17
2018-02-21T18:24:10.891Z,19.90
2018-02-21T18:26:39.618Z,20.98
2018-02-21T18:29:09.491Z,21.15
2018-02-21T18:31:38.812Z,22.33
2018-02-21T18:34:08.652Z,30.45
2018-02-21T18:36:37.636Z,24.30
2018-02-21T18:39:06.825Z,25.00
2018-02-21T18:41:35.768Z,22.10
2018-02-21T18:44:04.460Z,23.12
2018-02-21T18:46:33.184Z,23.48
2018-02-21T18:49:01.661Z,24.45
2018-02-21T18:51:30.210Z,23.58
2018-02-21T18:53:58.889Z,23.87
2018-02-21T18:56:27.527Z,21.95
2018-02-21T18:58:56.133Z,24.50
2018-02-21T19:01:24.635Z,22.73
2018-02-21T19:03:54.622Z,20.60
2018-02-21T19:06:23.195Z,24.85
2018-02-21T19:08:51.720Z,22.33
2018-02-21T19:11:20.532Z,22.42
2018-02-21T19:13:50.327Z,23.08
2018-02-21T19:16:19.181Z,22.10
2018-02-21T19:18:47.897Z,22.13
2018-02-21T19:21:18.695Z,22.33
2018-02-21T19:23:47.831Z,22.62
2018-02-21T19:26:17.392Z,20.37
2018-02-21T19:28:46.243Z,21.40
2018-02-21T19:31:20.574Z,21.60
2018-02-21T19:33:49.467Z,22.10
2018-02-21T19:36:18.148Z,21.55
2018-02-21T19:38:46.817Z,21.52
2018-02-21T19:41:15.561Z,21.33
2018-02-21T19:43:44.131Z,24.48
2018-02-21T19:46:12.826Z,22.92
2018-02-21T19:48:41.695Z,22.95
2018-02-21T19:51:10.306Z,23.25
2018-02-21T19:53:39.270Z,23.73
2018-02-21T19:56:09.401Z,25.30
2018-02-21T19:58:44.716Z,28.75
2018-02-21T20:01:14.227Z,33.47
2018-02-21T20:03:44.074Z,42.92
2018-02-21T20:06:13.134Z,45.80
2018-02-21T20:08:44.040Z,33.35
2018-02-21T20:11:18.209Z,29.33
2018-02-21T20:13:48.091Z,34.10
2018-02-21T20:16:16.627Z,30.20
2018-02-21T20:18:45.210Z,29.52
2018-02-21T20:21:15.849Z,31.23
2018-02-21T20:23:45.214Z,30.73
2018-02-21T20:26:15.365Z,26.45
2018-02-21T20:28:44.842Z,29.00
2018-02-21T20:31:14.688Z,27.98
2018-02-21T20:33:44.152Z,30.48
2018-02-21T20:36:15.432Z,27.98
2018-02-21T20:38:54.228Z,33.17
2018-02-21T20:41:28.530Z,36.85
2018-02-21T20:43:58.378Z,32.35
2018-02-21T20:46:35.983Z,32.22
2018-02-21T20:49:07.469Z,32.95
2018-02-21T20:51:36.155Z,34.47
2018-02-21T20:54:04.942Z,32.45
2018-02-21T20:56:33.469Z,29.27
2018-02-21T20:59:02.060Z,29.37
2018-02-21T21:01:30.582Z,29.05
2018-02-21T21:03:59.038Z,30.58
2018-02-21T21:06:28.553Z,30.50
2018-02-21T21:08:57.055Z,34.55
2018-02-21T21:11:25.556Z,36.38
2018-02-21T21:13:54.373Z,31.00
2018-02-21T21:16:22.933Z,36.58
2018-02-21T21:18:51.969Z,33.95
2018-02-21T21:21:21.560Z,33.38
2018-02-21T21:23:49.808Z,36.00
2018-02-21T21:26:18.497Z,34.28
2018-02-21T21:28:48.499Z,32.17
2018-02-21T21:31:17.392Z,35.90
2018-02-21T21:33:46.720Z,35.47
2018-02-21T21:36:16.514Z,34.75
2018-02-21T21:38:45.446Z,34.70
2018-02-21T21:41:14.132Z,31.27
2018-02-21T21:43:43.497Z,32.53
2018-02-21T21:46:12.818Z,33.97
2018-02-21T21:48:41.557Z,32.78
2018-02-21T21:51:10.683Z,34.30
2018-02-21T21:53:39.681Z,32.65
2018-02-21T21:56:08.666Z,33.35
2018-02-21T21:58:37.266Z,33.30
2018-02-21T22:01:05.983Z,31.90
2018-02-21T22:03:34.873Z,29.92
2018-02-21T22:06:06.229Z,27.37
2018-02-21T22:08:35.893Z,28.33
2018-02-21T22:11:04.987Z,31.23
2018-02-21T22:13:34.513Z,30.17
2018-02-21T22:16:03.202Z,29.35
2018-02-21T22:18:32.246Z,28.90
2018-02-21T22:21:00.886Z,33.53
2018-02-21T22:23:29.537Z,31.92
2018-02-21T22:25:58.053Z,32.25
2018-02-21T22:28:26.813Z,33.47
2018-02-21T22:30:55.293Z,29.98
2018-02-21T22:33:23.811Z,30.67
2018-02-21T22:35:52.860Z,29.35
2018-02-21T22:38:21.360Z,31.37
2018-02-21T22:40:49.929Z,28.92
2018-02-21T22:43:18.448Z,31.25
2018-02-21T22:45:47.010Z,28.73
2018-02-21T22:48:15.775Z,29.80
2018-02-21T22:50:44.445Z,32.95
2018-02-21T22:53:13.071Z,31.20
2018-02-21T22:55:41.862Z,32.47
2018-02-21T22:58:10.723Z,30.92
2018-02-21T23:00:40.637Z,33.65
2018-02-21T23:03:09.267Z,27.85
2018-02-21T23:05:39.033Z,31.05
2018-02-21T23:08:07.609Z,29.48
2018-02-21T23:10:36.333Z,30.30
2018-02-21T23:13:06.218Z,29.17
2018-02-21T23:15:34.828Z,29.83
2018-02-21T23:18:03.820Z,27.40
2018-02-21T23:20:33.530Z,29.10
2018-02-21T23:23:02.228Z,28.77
2018-02-21T23:25:30.718Z,27.83
2018-02-21T23:28:01.023Z,29.23
2018-02-21T23:30:29.660Z,28.33
2018-02-21T23:32:58.592Z,28.60
2018-02-21T23:35:27.169Z,28.42
2018-02-21T23:37:55.709Z,25.77
2018-02-21T23:40:24.231Z,26.80
2018-02-21T23:42:52.781Z,28.75
2018-02-21T23:45:21.262Z,27.08
2018-02-21T23:47:49.843Z,26.30
2018-02-21T23:50:19.353Z,26.20
2018-02-21T23:52:47.841Z,27.48
2018-02-21T23:55:16.329Z,25.62
2018-02-21T23:57:45.381Z,28.12
